Flight Track Log - Related Links

Times and Time Zones

All times are in EDT time to prevent confusion due to time zone crossing. See the CCA4491 flight status page for this flight to view local times or setup timezone preferences in your user account.


Time Position Orientation Groundspeed Altitude Reporting Facility
EDT Latitude Longitude Course Direction KTS MPH feet Rate Location/Type
Tue 06:29:11 PM 30.5780 103.9470 41° Northeast 160 184  Level FlightAware ADS-B
Tue 06:29:36 PM 30.5970 103.9560 22° Northeast 163 188 3,000 5,067 Climbing FlightAware ADS-B
Tue 06:29:56 PM 30.6100 103.9620 22° Northeast 165 190 3,800 2,063 Climbing FlightAware ADS-B
Tue 06:30:08 PM 30.6190 103.9660 21° North 170 196 4,100 1,833 Climbing FlightAware ADS-B
Tue 06:30:32 PM 30.6370 103.9750 23° Northeast 175 201 4,900 1,773 Climbing FlightAware ADS-B
Tue 06:30:52 PM 30.6530 103.9820 21° North 192 221 5,400 1,317 Climbing FlightAware ADS-B
Tue 06:31:13 PM 30.6710 103.9910 23° Northeast 214 246 5,800 1,286 Climbing FlightAware ADS-B
Tue 06:31:34 PM 30.6920 104.0020 24° Northeast 240 276 6,300 1,448 Climbing FlightAware ADS-B
Tue 06:31:42 PM 30.6980 104.0080 41° Northeast 249 287 6,500 1,800 Climbing FlightAware ADS-B
Tue 06:31:54 PM 30.7080 104.0210 48° Northeast 264 304 6,900 1,875 Climbing FlightAware ADS-B
Tue 06:32:14 PM 30.7210 104.0460 59° Northeast 285 328 7,500 2,318 Climbing FlightAware ADS-B
Tue 06:32:38 PM 30.7360 104.0800 63° Northeast 291 335 8,600 3,000 Climbing FlightAware ADS-B
Tue 06:32:58 PM 30.7480 104.1080 63° Northeast 292 336 9,700 2,491 Climbing FlightAware ADS-B
Tue 06:33:31 PM 30.7680 104.1550 64° Northeast 317 365 10,800 1,500 Climbing FlightAware ADS-B
Tue 06:34:06 PM 30.7940 104.2120 62° Northeast 359 413 11,400 1,397 Climbing FlightAware ADS-B
Tue 06:34:44 PM 30.8240 104.2810 63° Northeast 381 438 12,500 1,973 Climbing FlightAware ADS-B
Tue 06:35:19 PM 30.8510 104.3450 64° Northeast 390 449 13,800 2,063 Climbing FlightAware ADS-B
Tue 06:35:48 PM 30.8780 104.4000 60° Northeast 400 460 14,700 1,756 Climbing FlightAware ADS-B
Tue 06:36:00 PM 30.8940 104.4170 42° Northeast 404 465 15,000 1,818 Climbing FlightAware ADS-B
Tue 06:36:21 PM 30.9290 104.4360 25° Northeast 406 467 15,700 1,889 Climbing FlightAware ADS-B
Tue 06:36:54 PM 30.9940 104.4430 North 416 479 16,700 1,855 Climbing FlightAware ADS-B
Tue 06:37:16 PM 31.0350 104.4420 359° North 419 482 17,400 1,759 Climbing FlightAware ADS-B
Tue 06:37:52 PM 31.1060 104.4390 358° North 428 493 18,400 1,913 Climbing FlightAware ADS-B
Tue 06:38:25 PM 31.1710 104.4360 358° North 428 493 19,600 1,739 Climbing FlightAware ADS-B
Tue 06:39:01 PM 31.2430 104.4320 357° North 439 505 20,400 1,397 Climbing FlightAware ADS-B
Tue 06:39:38 PM 31.3180 104.4280 357° North 444 511 21,300 1,765 Climbing FlightAware ADS-B
Tue 06:40:09 PM 31.3830 104.4250 358° North 439 505 22,400 1,970 Climbing FlightAware ADS-B
Tue 06:40:45 PM 31.4560 104.4210 357° North 432 497 23,500 1,000 Climbing FlightAware ADS-B
Tue 06:41:21 PM 31.5280 104.4180 358° North 434 499 23,600 83 Climbing FlightAware ADS-B
Tue 06:41:57 PM 31.6010 104.4150 358° North 436 502 23,600  Level FlightAware ADS-B
Tue 06:42:31 PM 31.6700 104.4110 357° North 436 502 23,600  Level FlightAware ADS-B
Tue 06:43:07 PM 31.7420 104.4080 358° North 437 503 23,600  Level FlightAware ADS-B
Tue 06:43:43 PM 31.8140 104.4040 357° North 436 502 23,600  Level FlightAware ADS-B
Tue 06:44:14 PM 31.8770 104.4010 358° North 435 501 23,600  Level FlightAware ADS-B
Tue 06:44:51 PM 31.9500 104.3980 358° North 436 502 23,600  Level FlightAware ADS-B
Tue 06:45:29 PM 32.0280 104.3940 358° North 435 501 23,600  Level FlightAware ADS-B
Tue 06:46:05 PM 32.1010 104.3840 353° North 437 503 23,600  Level FlightAware ADS-B
Tue 06:46:36 PM 32.1620 104.3700 349° North 439 505 23,600  Level FlightAware ADS-B
Tue 06:47:13 PM 32.2370 104.3540 350° North 440 506 23,600  Level FlightAware ADS-B
Tue 06:47:45 PM 32.3010 104.3400 350° North 439 505 23,600 -441 Level FlightAware ADS-B
Tue 06:48:21 PM 32.3690 104.3250 349° North 409 471 23,100 -904 Descending FlightAware ADS-B
Tue 06:48:58 PM 32.4370 104.3140 352° North 381 438 22,500 -1,038 Descending FlightAware ADS-B
Tue 06:49:13 PM 32.4630 104.3050 344° North 378 435 22,200 -1,024 Descending FlightAware ADS-B
Tue 06:49:39 PM 32.5020 104.2790 331° Northwest 374 430 21,800 -364 Descending FlightAware ADS-B
Tue 06:50:19 PM 32.5490 104.2370 323° Northwest 374 430 21,800 -1,111 Level FlightAware ADS-B
Tue 06:50:33 PM 32.5570 104.1950 283° West 365 420 20,800 -1,500 Descending FlightAware ADS-B
Tue 06:51:11 PM 32.5740 104.1300 287° West 363 418 20,500 -243 Descending FlightAware ADS-B
Tue 06:51:47 PM 32.5890 104.0720 287° West 363 418 20,500  Level FlightAware ADS-B
Tue 06:52:23 PM 32.6040 104.0140 287° West 363 418 20,500  Level FlightAware ADS-B
Tue 06:52:59 PM 32.6190 103.9550 287° West 363 418 20,500  Level FlightAware ADS-B
Tue 06:53:35 PM 32.6340 103.8970 287° West 363 418 20,500  Level FlightAware ADS-B
Tue 06:54:11 PM 32.6490 103.8390 287° West 363 418 20,500  Level FlightAware ADS-B
Tue 06:56:00 PM 32.7660 103.7513 328° Northwest  Level Estimated
Tue 06:57:00 PM 32.8304 103.7030 328° Northwest  Level Estimated
Tue 06:58:00 PM 32.8570 103.6830 328° Northwest  Level Estimated
Tue 06:59:00 PM 32.8570 103.6830 North  Level Estimated
Tue 07:00:00 PM 32.8570 103.6830 North  Level Estimated
Tue 07:01:00 PM 32.8570 103.6830 North  Level Estimated
Tue 07:02:00 PM 32.8570 103.6830 North  Level Estimated

Login

Don't have an account? Register now (free) for customized features, flight alerts, and more!